Time;durP1;ratioP1;P1;durP2;ratioP2;P2;SDS_P1;SDS_P2;PMS_P1;PMS_P2;Temp;Humidity;BMP_temperature;BMP_pressure;BME280_temperature;BME280_humidity;BME280_pressure;Samples;Min_cycle;Max_cycle;Signal;HPM_P1;HPM_P2
2021/07/30 00:01:59;;;;;;;6.83;4.10;;;;;;;14.43;68.28;101076.53;5115889;28;20031;-35
2021/07/30 00:04:25;;;;;;;7.30;4.00;;;;;;;14.40;68.17;101077.03;5115796;28;20728;-35
2021/07/30 00:06:50;;;;;;;9.47;4.70;;;;;;;14.34;67.74;101059.81;5115474;28;20049;-35
2021/07/30 00:09:15;;;;;;;7.97;4.57;;;;;;;14.29;67.88;101065.19;5115461;28;20035;-35
2021/07/30 00:11:41;;;;;;;7.82;4.25;;;;;;;14.47;67.76;101066.78;5115312;28;20059;-35
2021/07/30 00:14:07;;;;;;;;;;;;;;;14.57;66.82;101066.97;5116163;28;20047;-35
2021/07/30 00:16:32;;;;;;;8.55;4.30;;;;;;;14.32;67.96;101069.31;5115807;28;19921;-35
2021/07/30 00:18:58;;;;;;;11.80;4.72;;;;;;;14.31;69.24;101075.81;5115464;28;20038;-35
2021/07/30 00:21:23;;;;;;;7.43;4.53;;;;;;;14.28;67.32;101073.59;5115849;28;20031;-35
2021/07/30 00:23:48;;;;;;;11.30;4.55;;;;;;;14.32;67.57;101063.88;5115127;28;20065;-35
2021/07/30 00:26:14;;;;;;;10.33;4.40;;;;;;;14.33;68.57;101070.94;5115178;28;20102;-34
2021/07/30 00:28:39;;;;;;;9.60;5.15;;;;;;;14.25;69.48;101063.19;5115253;28;20332;-35
2021/07/30 00:31:05;;;;;;;7.77;4.70;;;;;;;14.19;68.63;101048.72;5115010;28;20549;-35
2021/07/30 00:33:30;;;;;;;9.60;5.00;;;;;;;14.14;68.89;101049.47;5114641;28;20417;-36
2021/07/30 00:35:55;;;;;;;9.95;4.97;;;;;;;14.14;68.92;101056.78;5115643;28;20102;-35
2021/07/30 00:38:21;;;;;;;10.03;5.13;;;;;;;14.16;68.73;101066.38;5115169;28;20359;-36
2021/07/30 00:40:46;;;;;;;10.45;4.47;;;;;;;14.17;68.50;101061.75;5114752;28;20600;-36
2021/07/30 00:43:12;;;;;;;9.70;5.05;;;;;;;14.21;68.36;101056.63;5114996;28;20024;-36
2021/07/30 00:46:02;;;;;;;7.60;4.23;;;;;;;14.25;68.00;101055.91;5115929;28;20435;-36
2021/07/30 00:48:31;;;;;;;8.10;4.47;;;;;;;14.13;68.54;101055.97;5114239;28;20020;-35
2021/07/30 00:50:57;;;;;;;10.75;5.03;;;;;;;14.06;69.08;101054.53;5114860;28;20020;-36
2021/07/30 00:53:23;;;;;;;10.13;4.72;;;;;;;14.09;68.63;101038.50;5114963;28;20353;-36
2021/07/30 00:55:48;;;;;;;9.35;4.80;;;;;;;13.99;70.07;101054.66;5114295;28;20076;-36
2021/07/30 00:58:15;;;;;;;11.15;4.80;;;;;;;13.99;69.42;101043.78;5115064;28;20027;-36
2021/07/30 01:00:41;;;;;;;7.00;4.40;;;;;;;13.92;69.73;101054.03;5113082;28;20042;-36
2021/07/30 01:03:08;;;;;;;7.53;4.45;;;;;;;13.99;69.74;101051.13;5114264;28;20019;-35
2021/07/30 01:05:34;;;;;;;9.07;4.80;;;;;;;13.91;69.81;101057.81;5114385;28;20042;-36
2021/07/30 01:08:01;;;;;;;7.63;4.75;;;;;;;13.95;70.07;101064.38;5113085;28;20053;-36
2021/07/30 01:10:27;;;;;;;14.95;5.50;;;;;;;13.95;70.34;101050.78;5113792;28;20059;-36
2021/07/30 01:12:54;;;;;;;8.60;4.65;;;;;;;13.86;69.83;101039.53;5112842;28;20143;-36
2021/07/30 01:15:20;;;;;;;9.52;4.72;;;;;;;13.93;70.03;101055.66;5114486;28;20020;-35
2021/07/30 01:17:45;;;;;;;11.60;4.55;;;;;;;13.92;69.89;101059.47;5114629;28;20019;-35
2021/07/30 01:20:11;;;;;;;7.50;4.93;;;;;;;13.78;69.82;101047.28;5113819;28;20027;-36
2021/07/30 01:22:50;;;;;;;9.20;4.82;;;;;;;13.90;69.84;101050.72;5114498;28;20432;-36
2021/07/30 01:25:16;;;;;;;11.82;4.60;;;;;;;13.91;70.73;101052.38;5114798;28;20024;-35
2021/07/30 01:27:41;;;;;;;8.20;4.13;;;;;;;13.99;69.96;101059.28;5114550;28;20031;-36
2021/07/30 01:30:07;;;;;;;8.87;4.37;;;;;;;13.87;70.47;101053.94;5113766;28;20103;-35
2021/07/30 01:32:32;;;;;;;11.70;4.63;;;;;;;13.86;70.21;101036.81;5112773;28;20451;-35
2021/07/30 01:34:58;;;;;;;10.77;4.97;;;;;;;13.88;70.42;101050.97;5114073;28;20015;-36
2021/07/30 01:37:26;;;;;;;10.73;4.85;;;;;;;13.87;70.76;101045.78;5113784;28;20027;-36
2021/07/30 01:39:51;;;;;;;12.55;4.68;;;;;;;13.92;70.45;101054.03;5114260;28;20015;-35
2021/07/30 01:42:16;;;;;;;8.73;4.30;;;;;;;13.88;70.66;101058.31;5113569;28;20458;-35
2021/07/30 01:44:42;;;;;;;9.57;4.63;;;;;;;13.83;70.63;101055.50;5113946;28;20405;-36
2021/07/30 01:47:09;;;;;;;7.37;4.47;;;;;;;13.92;70.44;101062.19;5114038;28;20038;-35
2021/07/30 01:49:35;;;;;;;9.90;4.60;;;;;;;13.97;70.40;101054.09;5113572;28;20511;-35
2021/07/30 01:52:00;;;;;;;8.05;4.50;;;;;;;13.91;69.83;101049.66;5113653;28;20062;-40
2021/07/30 01:54:26;;;;;;;11.80;4.93;;;;;;;13.96;70.35;101048.91;5113846;28;20024;-36
2021/07/30 01:56:51;;;;;;;9.63;4.63;;;;;;;13.86;71.27;101041.44;5113682;28;20238;-35
2021/07/30 01:59:16;;;;;;;11.77;5.20;;;;;;;13.76;70.94;101030.38;5113556;28;20284;-36
2021/07/30 02:01:42;;;;;;;9.93;4.50;;;;;;;13.88;70.90;101039.28;5112355;28;20051;-35
2021/07/30 02:04:07;;;;;;;7.70;4.33;;;;;;;13.79;70.98;101016.31;5113501;28;20308;-35
2021/07/30 02:06:32;;;;;;;9.50;4.90;;;;;;;13.76;71.14;101044.81;5113245;28;20257;-35
2021/07/30 02:08:59;;;;;;;15.47;5.60;;;;;;;13.80;71.14;101040.50;5113492;28;20023;-35
2021/07/30 02:11:25;;;;;;;15.32;4.88;;;;;;;13.71;71.67;101039.28;5113530;28;20789;-36
2021/07/30 02:16:34;;;;;;;11.85;4.95;;;;;;;13.58;72.14;101039.63;5113917;28;20092;-35
2021/07/30 02:18:59;;;;;;;7.47;4.77;;;;;;;13.56;72.85;101023.53;5113638;28;20103;-36
2021/07/30 02:21:24;;;;;;;7.47;4.93;;;;;;;13.57;73.28;101024.38;5113148;28;20530;-35
2021/07/30 02:23:50;;;;;;;8.93;4.88;;;;;;;13.60;73.30;101029.31;5116886;28;20106;-35
2021/07/30 02:26:15;;;;;;;11.93;4.53;;;;;;;13.63;74.03;101031.53;5117728;28;20034;-35
2021/07/30 02:28:40;;;;;;;7.97;4.27;;;;;;;13.55;73.24;101034.66;5117229;28;20290;-35
2021/07/30 02:31:06;;;;;;;8.53;4.97;;;;;;;13.55;73.32;101027.34;5117359;27;20016;-36
2021/07/30 02:33:31;;;;;;;8.03;4.57;;;;;;;13.44;73.61;101030.13;5117342;28;20034;-36
2021/07/30 02:35:57;;;;;;;7.72;4.43;;;;;;;13.49;74.25;101027.50;5116938;28;20626;-36
2021/07/30 02:38:22;;;;;;;7.85;4.28;;;;;;;13.45;74.66;101029.06;5117363;28;20020;-35
2021/07/30 02:40:47;;;;;;;5.50;4.30;;;;;;;13.42;74.79;101029.53;5116909;28;20356;-35
2021/07/30 02:43:13;;;;;;;8.23;4.93;;;;;;;13.34;74.84;101023.44;5115717;28;20035;-36
2021/07/30 02:45:38;;;;;;;9.27;4.53;;;;;;;13.28;74.29;101018.19;5116043;28;20357;-35
2021/07/30 02:48:03;;;;;;;8.83;5.37;;;;;;;13.34;74.68;101017.19;5117076;28;20027;-36
2021/07/30 02:50:29;;;;;;;8.35;4.63;;;;;;;13.35;74.85;101016.13;5117507;28;20024;-35
2021/07/30 02:52:54;;;;;;;8.63;5.55;;;;;;;13.23;74.57;101001.81;5116970;28;20026;-35
2021/07/30 02:55:19;;;;;;;8.73;4.30;;;;;;;13.41;75.51;101009.69;5117066;28;20031;-36
2021/07/30 02:57:45;;;;;;;6.83;4.60;;;;;;;13.27;75.17;101005.66;5116939;28;20111;-35
2021/07/30 03:00:11;;;;;;;12.32;5.00;;;;;;;13.24;74.79;101003.44;5117431;28;20050;-36
2021/07/30 03:02:37;;;;;;;10.35;5.25;;;;;;;13.24;75.31;101008.88;5116749;28;20035;-36
2021/07/30 03:05:03;;;;;;;9.27;5.38;;;;;;;13.31;74.73;101001.38;5117029;28;20023;-35
2021/07/30 03:07:28;;;;;;;11.35;5.82;;;;;;;13.08;75.33;100995.00;5116992;28;20026;-35
2021/07/30 03:09:53;;;;;;;9.77;5.63;;;;;;;13.31;76.58;101001.38;5116595;27;20324;-35
2021/07/30 03:12:18;;;;;;;8.90;5.97;;;;;;;13.05;74.72;100979.19;5116093;28;20022;-35
2021/07/30 03:14:44;;;;;;;11.63;6.00;;;;;;;13.08;75.06;100984.13;5116241;28;20027;-36
2021/07/30 03:17:09;;;;;;;10.13;5.57;;;;;;;13.08;74.91;100984.13;5116802;28;20019;-35
2021/07/30 03:19:34;;;;;;;12.87;5.93;;;;;;;13.06;75.05;100988.16;5116443;28;20019;-35
2021/07/30 03:22:00;;;;;;;8.80;5.17;;;;;;;13.11;75.67;100989.06;5116858;28;20030;-35
2021/07/30 03:24:25;;;;;;;13.77;5.77;;;;;;;13.08;75.76;100969.75;5116380;28;20026;-36
2021/07/30 03:26:51;;;;;;;11.30;5.10;;;;;;;13.21;75.76;100977.56;5116827;28;20370;-36
2021/07/30 03:29:17;;;;;;;11.40;5.38;;;;;;;13.21;76.25;100963.97;5116245;28;20384;-35
2021/07/30 03:31:47;;;;;;;12.50;5.20;;;;;;;13.24;76.18;100968.13;5116660;28;20076;-35
2021/07/30 03:34:12;;;;;;;11.30;5.32;;;;;;;13.26;75.60;100968.72;5116057;28;20019;-35
2021/07/30 03:36:37;;;;;;;12.52;5.60;;;;;;;13.33;76.21;100978.34;5115849;28;20085;-36
2021/07/30 03:39:03;;;;;;;11.13;5.37;;;;;;;13.30;76.51;100964.44;5116111;28;20176;-36
2021/07/30 03:41:28;;;;;;;12.73;5.53;;;;;;;13.44;76.39;100982.06;5116631;28;20019;-36
2021/07/30 03:43:53;;;;;;;13.63;5.90;;;;;;;13.40;75.71;100975.47;5115948;28;20724;-36
2021/07/30 03:46:19;;;;;;;9.97;5.67;;;;;;;13.35;76.81;100964.53;5115732;28;20024;-36
2021/07/30 03:48:44;;;;;;;15.53;6.40;;;;;;;13.41;76.84;100977.09;5114848;27;20418;-35
2021/07/30 03:51:09;;;;;;;12.00;6.03;;;;;;;13.40;76.53;100959.16;5116312;28;20031;-36
2021/07/30 03:53:35;;;;;;;13.17;5.53;;;;;;;13.34;77.27;100941.97;5116015;28;20386;-36
2021/07/30 03:56:00;;;;;;;10.70;5.73;;;;;;;13.48;76.63;100971.53;5116085;28;20016;-36
2021/07/30 03:58:25;;;;;;;13.83;5.53;;;;;;;13.44;76.85;100971.19;5116070;28;20023;-35
2021/07/30 04:00:51;;;;;;;13.47;6.27;;;;;;;13.47;76.22;100976.16;5116483;28;20031;-35
2021/07/30 04:03:16;;;;;;;11.23;5.60;;;;;;;13.55;77.83;100973.00;5115423;28;20019;-35
2021/07/30 04:05:41;;;;;;;9.47;5.60;;;;;;;13.57;77.94;100965.44;5115358;28;20498;-36
2021/07/30 04:08:06;;;;;;;9.27;5.93;;;;;;;13.52;76.52;100969.97;5115510;28;20019;-35
2021/07/30 04:10:32;;;;;;;13.67;5.70;;;;;;;13.33;76.70;100951.19;5116074;28;20102;-35
2021/07/30 04:12:58;;;;;;;10.80;5.38;;;;;;;13.49;76.66;100979.41;5115727;28;20051;-36
2021/07/30 04:15:24;;;;;;;9.98;6.00;;;;;;;13.39;76.82;100973.81;5115393;28;20397;-36
2021/07/30 04:17:50;;;;;;;8.63;5.03;;;;;;;13.47;77.45;100973.44;5115355;27;20069;-36
2021/07/30 04:20:15;;;;;;;9.82;5.07;;;;;;;13.51;78.43;100982.69;5115260;28;20272;-36
2021/07/30 04:22:40;;;;;;;11.88;6.38;;;;;;;13.44;77.11;100971.19;5114924;28;20019;-35
2021/07/30 04:25:07;;;;;;;10.67;6.23;;;;;;;13.31;76.85;100968.78;5115428;28;20403;-35
2021/07/30 04:27:32;;;;;;;11.52;5.85;;;;;;;13.38;77.33;100958.59;5115049;28;20102;-36
2021/07/30 04:29:57;;;;;;;11.10;5.87;;;;;;;13.45;76.58;100959.25;5115023;28;20133;-36
2021/07/30 04:32:23;;;;;;;13.13;5.90;;;;;;;13.41;77.95;100960.81;5115047;27;20051;-36
2021/07/30 04:34:48;;;;;;;16.23;6.50;;;;;;;13.48;77.71;100961.47;5115469;28;20028;-36
2021/07/30 04:37:13;;;;;;;11.47;5.53;;;;;;;13.56;77.37;100966.47;5115026;28;20412;-35
2021/07/30 04:39:39;;;;;;;12.27;5.67;;;;;;;13.52;77.03;100959.94;5114670;28;20371;-35
2021/07/30 04:42:05;;;;;;;17.75;5.65;;;;;;;13.47;77.01;100934.53;5114845;28;20264;-36
2021/07/30 04:44:33;;;;;;;11.35;6.05;;;;;;;13.43;77.11;100931.53;5114282;28;20027;-36
2021/07/30 04:46:59;;;;;;;11.15;5.60;;;;;;;13.61;77.95;100954.88;5114748;28;20072;-36
2021/07/30 04:49:24;;;;;;;10.32;5.32;;;;;;;13.60;78.93;100937.75;5114603;28;20403;-35
2021/07/30 04:51:49;;;;;;;11.60;5.13;;;;;;;13.72;77.63;100953.16;5114877;28;20020;-36
2021/07/30 04:54:15;;;;;;;12.03;5.60;;;;;;;13.75;77.19;100955.34;5114349;28;20020;-36
2021/07/30 04:56:40;;;;;;;11.63;5.53;;;;;;;13.80;78.32;100950.00;5115338;28;20073;-35
2021/07/30 04:59:06;;;;;;;11.95;5.07;;;;;;;13.94;78.17;100951.28;5115142;28;20268;-34
2021/07/30 05:01:31;;;;;;;9.60;5.20;;;;;;;13.96;78.44;100935.56;5114723;28;20367;-35
2021/07/30 05:03:57;;;;;;;9.90;5.47;;;;;;;13.99;78.38;100937.75;5114676;28;20344;-35
2021/07/30 05:06:23;;;;;;;6.10;4.80;;;;;;;14.15;79.94;100936.06;5114135;28;20111;-35
2021/07/30 05:08:48;;;;;;;10.57;5.67;;;;;;;14.14;78.26;100942.59;5114436;28;20024;-35
2021/07/30 05:11:14;;;;;;;10.20;6.10;;;;;;;14.16;77.19;100946.72;5114200;28;20144;-35
2021/07/30 05:13:41;;;;;;;14.32;6.43;;;;;;;14.18;76.46;100955.41;5114286;28;20135;-35
2021/07/30 05:16:07;;;;;;;13.02;6.70;;;;;;;14.08;76.86;100932.72;5114173;28;20042;-35
2021/07/30 05:18:33;;;;;;;17.23;6.00;;;;;;;14.16;76.61;100938.56;5114422;28;20038;-35
2021/07/30 05:20:58;;;;;;;13.40;6.60;;;;;;;14.23;76.42;100937.53;5113247;28;20511;-36
2021/07/30 05:23:24;;;;;;;10.52;5.70;;;;;;;14.23;76.26;100924.75;5114504;28;20405;-36
2021/07/30 05:25:53;;;;;;;10.98;6.07;;;;;;;14.40;77.49;100930.97;5114284;28;20027;-36
2021/07/30 05:28:19;;;;;;;12.40;6.93;;;;;;;14.36;76.66;100918.13;5114432;28;20366;-36
2021/07/30 05:30:44;;;;;;;12.80;6.53;;;;;;;14.54;76.50;100931.44;5114907;28;20024;-36
2021/07/30 05:33:09;;;;;;;14.40;6.13;;;;;;;14.60;76.44;100919.50;5114194;28;20277;-42
2021/07/30 05:35:34;;;;;;;13.80;6.57;;;;;;;14.65;75.72;100930.44;5114145;27;20024;-35
2021/07/30 05:38:00;;;;;;;14.43;6.20;;;;;;;14.54;75.57;100900.63;5113543;27;20328;-35
2021/07/30 05:40:25;;;;;;;17.80;6.43;;;;;;;14.77;75.94;100921.31;5113549;28;20475;-35
2021/07/30 05:42:50;;;;;;;11.10;6.40;;;;;;;14.79;75.66;100924.59;5113776;28;20032;-36
2021/07/30 05:45:16;;;;;;;9.73;5.83;;;;;;;14.72;74.91;100894.03;5113812;28;20242;-35
2021/07/30 05:47:41;;;;;;;15.40;6.03;;;;;;;14.87;75.03;100905.06;5113854;28;20031;-36
2021/07/30 05:50:07;;;;;;;14.90;6.27;;;;;;;15.05;75.16;100910.13;5114179;27;20436;-36
2021/07/30 05:52:33;;;;;;;9.90;5.57;;;;;;;15.13;74.58;100917.03;5113417;28;20269;-35
2021/07/30 05:54:58;;;;;;;10.75;5.97;;;;;;;15.12;73.88;100897.13;5114055;28;20148;-36
2021/07/30 05:57:24;;;;;;;15.27;6.30;;;;;;;15.22;74.38;100904.53;5113589;28;20016;-35
2021/07/30 05:59:49;;;;;;;11.53;5.67;;;;;;;15.33;74.96;100914.47;5113632;28;20034;-36
2021/07/30 06:02:14;;;;;;;14.45;6.18;;;;;;;15.32;73.50;100896.44;5113840;28;20022;-35
2021/07/30 06:04:40;;;;;;;14.68;5.95;;;;;;;15.40;73.35;100901.41;5113522;28;20016;-35
2021/07/30 06:07:05;;;;;;;11.07;6.13;;;;;;;15.52;73.75;100903.97;5113704;28;20034;-36
2021/07/30 06:09:30;;;;;;;14.60;6.37;;;;;;;15.54;74.27;100904.53;5113191;28;20456;-36
2021/07/30 06:11:56;;;;;;;17.42;6.57;;;;;;;15.60;73.39;100887.09;5113630;28;20065;-36
2021/07/30 06:14:21;;;;;;;13.68;5.50;;;;;;;15.82;75.01;100895.19;5113066;28;20391;-36
2021/07/30 06:16:46;;;;;;;11.27;5.43;;;;;;;15.96;74.85;100898.25;5113630;28;20016;-36
2021/07/30 06:19:12;;;;;;;13.03;5.77;;;;;;;16.03;73.44;100901.56;5113145;28;20032;-36
2021/07/30 06:21:37;;;;;;;14.20;6.33;;;;;;;15.93;74.10;100875.06;5111846;28;20334;-36
2021/07/30 06:24:02;;;;;;;;;;;;;;;16.19;73.39;100903.25;5113660;28;20397;-36
2021/07/30 06:26:28;;;;;;;13.05;5.85;;;;;;;16.14;74.81;100889.59;5113920;28;19907;-36
2021/07/30 06:28:53;;;;;;;14.00;6.40;;;;;;;16.22;71.95;100897.28;5113045;28;20467;-36
2021/07/30 06:31:18;;;;;;;10.27;6.63;;;;;;;16.29;74.07;100891.56;5112937;28;20123;-36
2021/07/30 06:33:45;;;;;;;13.95;6.85;;;;;;;16.26;72.08;100894.84;5113753;28;20266;-36
2021/07/30 06:36:10;;;;;;;14.55;5.93;;;;;;;16.27;71.74;100899.19;5113422;28;20020;-36
2021/07/30 06:38:35;;;;;;;;;;;;;;;16.39;72.35;100897.03;5113611;28;20107;-36
2021/07/30 06:41:00;;;;;;;11.10;5.83;;;;;;;16.39;72.84;100885.31;5113490;28;20296;-36
2021/07/30 06:43:26;;;;;;;;;;;;;;;16.48;72.73;100889.16;5113285;28;20515;-36
2021/07/30 06:45:51;;;;;;;11.33;5.53;;;;;;;16.43;72.03;100872.78;5112867;28;19991;-36
2021/07/30 06:48:16;;;;;;;;;;;;;;;16.56;72.38;100891.38;5112660;28;20032;-36
2021/07/30 06:50:44;;;;;;;10.65;5.95;;;;;;;16.55;73.70;100881.56;5113558;28;20333;-36
2021/07/30 06:53:09;;;;;;;14.57;5.85;;;;;;;16.61;72.23;100877.72;5113038;28;20042;-36
2021/07/30 06:55:34;;;;;;;;;;;;;;;16.73;72.57;100883.78;5114086;28;20027;-36
2021/07/30 06:58:00;;;;;;;11.30;6.10;;;;;;;16.72;73.83;100884.88;5112736;28;20355;-36
2021/07/30 07:00:25;;;;;;;;;;;;;;;16.83;72.44;100876.69;5113446;28;20031;-36
2021/07/30 07:02:50;;;;;;;13.63;6.23;;;;;;;16.68;73.49;100848.25;5113047;28;19904;-36
2021/07/30 07:05:18;;;;;;;13.47;5.83;;;;;;;16.79;71.89;100862.78;5113543;28;20302;-36
2021/07/30 07:07:43;;;;;;;11.77;6.05;;;;;;;16.85;71.41;100866.34;5112617;28;20104;-36
2021/07/30 07:10:09;;;;;;;14.25;5.97;;;;;;;16.88;72.10;100865.78;5116779;28;20047;-36
2021/07/30 07:12:36;;;;;;;;;;;;;;;17.00;71.95;100863.59;5117276;28;20049;-37
2021/07/30 07:15:02;;;;;;;11.30;4.82;;;;;;;16.97;73.11;100853.22;5117182;28;19907;-36
2021/07/30 07:17:27;;;;;;;;;;;;;;;17.11;72.74;100865.22;5117209;28;20019;-36
2021/07/30 07:19:52;;;;;;;13.27;5.60;;;;;;;17.08;71.85;100857.59;5116450;28;20366;-36
2021/07/30 07:22:18;;;;;;;8.97;5.90;;;;;;;17.08;73.38;100835.75;5116732;28;20676;-36
2021/07/30 07:24:43;;;;;;;12.05;5.63;;;;;;;17.13;70.87;100841.19;5116311;28;20268;-36
2021/07/30 07:27:08;;;;;;;;;;;;;;;17.32;71.21;100859.75;5116782;28;20467;-36
2021/07/30 07:29:33;;;;;;;11.53;4.77;;;;;;;17.23;70.02;100845.84;5116196;28;19903;-36
2021/07/30 07:32:00;;;;;;;6.67;4.43;;;;;;;17.38;70.73;100856.75;5116294;28;20274;-36
2021/07/30 07:34:26;;;;;;;11.10;4.88;;;;;;;17.29;69.58;100832.97;5116423;28;20268;-36
2021/07/30 07:36:51;;;;;;;;;;;;;;;17.52;70.10;100857.00;5116692;28;20477;-36
2021/07/30 07:39:16;;;;;;;8.30;4.00;;;;;;;17.52;69.22;100848.78;5115760;28;19918;-36
2021/07/30 07:41:45;;;;;;;12.07;4.40;;;;;;;17.55;71.38;100853.69;5116372;28;20261;-36
2021/07/30 07:44:17;;;;;;;14.23;4.90;;;;;;;17.55;70.14;100847.41;5115886;27;20023;-36
2021/07/30 07:46:44;;;;;;;7.88;4.32;;;;;;;17.62;69.86;100837.81;5116157;28;20031;-36
2021/07/30 07:49:09;;;;;;;9.80;4.38;;;;;;;17.67;71.41;100843.28;5114855;28;20031;-36
2021/07/30 07:51:36;;;;;;;13.30;3.90;;;;;;;17.74;68.70;100843.00;5116712;27;20023;-36
2021/07/30 07:54:02;;;;;;;9.18;3.75;;;;;;;17.80;67.98;100838.31;5115930;28;20729;-36
2021/07/30 07:56:27;;;;;;;10.50;3.75;;;;;;;17.86;68.82;100835.31;5116028;28;20049;-36
2021/07/30 07:58:52;;;;;;;;;;;;;;;18.01;68.96;100839.91;5116322;27;20446;-36
2021/07/30 08:01:18;;;;;;;5.85;3.47;;;;;;;17.97;67.87;100830.63;5115770;28;20420;-35
2021/07/30 08:03:44;;;;;;;;;;;;;;;18.17;68.34;100827.78;5115698;28;20020;-35
2021/07/30 08:06:17;;;;;;;7.28;3.92;;;;;;;18.20;67.31;100819.00;5115594;28;20409;-35
2021/07/30 08:08:43;;;;;;;6.13;3.42;;;;;;;18.30;66.89;100820.88;5115782;28;20054;-35
2021/07/30 08:11:09;;;;;;;10.00;3.90;;;;;;;18.36;67.31;100827.13;5115559;28;20051;-35
2021/07/30 08:13:34;;;;;;;;;;;;;;;18.49;66.97;100829.22;5116024;28;20084;-35
2021/07/30 08:15:59;;;;;;;10.20;3.60;;;;;;;18.57;66.86;100819.59;5116000;28;19960;-35
2021/07/30 08:18:24;;;;;;;;;;;;;;;18.74;66.59;100814.56;5116087;28;20265;-35
2021/07/30 08:20:50;;;;;;;6.73;3.33;;;;;;;18.84;65.21;100805.41;5114337;28;20337;-35
2021/07/30 08:23:15;;;;;;;;;;;;;;;19.04;66.47;100819.78;5115987;27;20590;-35
2021/07/30 08:25:40;;;;;;;6.43;3.17;;;;;;;19.10;64.02;100806.03;5115890;28;19911;-36
2021/07/30 08:28:05;;;;;;;;;;;;;;;19.23;63.92;100810.84;5115646;28;20027;-35
2021/07/30 08:30:31;;;;;;;8.63;3.42;;;;;;;19.22;64.51;100803.69;5115979;28;19914;-36
2021/07/30 08:32:56;;;;;;;;;;;;;;;19.29;63.02;100807.75;5115701;28;20027;-36
2021/07/30 08:35:22;;;;;;;5.10;3.03;;;;;;;19.24;62.84;100807.81;5115367;28;19907;-36
2021/07/30 08:37:47;;;;;;;;;;;;;;;19.38;64.88;100810.69;5115845;28;20351;-36
2021/07/30 08:40:13;;;;;;;8.27;2.50;;;;;;;19.34;63.56;100808.81;5115176;28;20347;-36
2021/07/30 08:42:39;;;;;;;6.45;2.70;;;;;;;19.43;63.31;100802.41;5113533;28;20807;-37
2021/07/30 08:45:05;;;;;;;;;;;;;;;19.61;63.41;100798.09;5115428;28;20129;-36
2021/07/30 08:47:30;;;;;;;10.43;3.20;;;;;;;19.59;61.82;100794.81;5115958;28;19949;-36
2021/07/30 08:49:57;;;;;;;;;;;;;;;19.71;62.85;100792.47;5115192;28;20020;-36
2021/07/30 08:52:32;;;;;;;7.07;2.70;;;;;;;19.62;61.94;100787.94;5115213;28;20366;-36
2021/07/30 08:54:57;;;;;;;5.43;2.45;;;;;;;19.62;61.79;100788.78;5114654;28;20522;-37
2021/07/30 08:57:22;;;;;;;;;;;;;;;19.74;62.89;100785.59;5116019;28;20027;-37
2021/07/30 08:59:47;;;;;;;4.80;2.43;;;;;;;19.72;63.12;100785.09;5114623;28;19904;-35
2021/07/30 09:02:13;;;;;;;7.60;2.65;;;;;;;19.71;62.14;100788.91;5115064;28;20039;-35
2021/07/30 09:04:38;;;;;;;;;;;;;;;19.87;62.61;100784.06;5114945;28;20019;-37
2021/07/30 09:07:04;;;;;;;5.15;2.15;;;;;;;19.78;60.77;100762.78;5115235;28;19911;-35
2021/07/30 09:09:33;;;;;;;4.85;2.45;;;;;;;19.95;60.66;100772.41;5114334;28;20038;-36
2021/07/30 09:12:00;;;;;;;4.85;2.40;;;;;;;20.01;60.63;100783.06;5114834;28;20103;-36
2021/07/30 09:14:41;;;;;;;5.50;2.63;;;;;;;20.12;60.80;100775.50;5114552;28;20039;-36
2021/07/30 09:17:07;;;;;;;3.70;2.08;;;;;;;20.27;60.60;100769.75;5114949;28;20145;-35
2021/07/30 09:19:33;;;;;;;4.80;2.42;;;;;;;20.39;61.69;100727.28;5114454;28;20027;-36
2021/07/30 09:22:08;;;;;;;;;;;;;;;20.86;60.68;100763.91;5115284;28;20352;-36
2021/07/30 09:24:42;;;;;;;5.75;2.70;;;;;;;21.06;56.94;100755.28;5114277;28;19907;-36
2021/07/30 09:27:11;;;;;;;8.10;2.85;;;;;;;21.14;57.17;100753.78;5114339;28;20039;-37
2021/07/30 09:29:39;;;;;;;6.85;2.63;;;;;;;21.08;57.80;100747.53;5113698;28;20523;-36
2021/07/30 09:32:08;;;;;;;8.13;2.30;;;;;;;21.05;57.04;100751.72;5113581;28;20478;-36
2021/07/30 09:34:38;;;;;;;5.82;2.88;;;;;;;21.00;57.76;100743.56;5113880;28;20034;-36
2021/07/30 09:37:06;;;;;;;4.03;2.13;;;;;;;20.97;56.25;100726.88;5114211;28;20034;-37
2021/07/30 09:39:35;;;;;;;6.18;2.30;;;;;;;21.16;57.16;100744.09;5113618;28;20478;-37
2021/07/30 09:42:05;;;;;;;5.72;1.90;;;;;;;21.39;57.64;100744.25;5114523;28;20019;-37
2021/07/30 09:44:44;;;;;;;3.75;2.30;;;;;;;21.48;56.90;100734.97;5114016;28;20030;-36
2021/07/30 09:47:21;;;;;;;3.28;2.45;;;;;;;21.49;56.48;100733.03;5114264;28;20019;-36
2021/07/30 09:49:52;;;;;;;8.00;2.72;;;;;;;21.76;57.29;100724.72;5113985;28;20422;-36
2021/07/30 09:52:29;;;;;;;2.95;2.08;;;;;;;21.92;55.74;100708.72;5113299;28;20030;-36
2021/07/30 09:55:04;;;;;;;4.10;2.00;;;;;;;22.08;55.62;100722.94;5113586;28;20023;-36
2021/07/30 09:57:40;;;;;;;10.43;2.17;;;;;;;21.98;54.21;100712.16;5113255;28;20020;-36
2021/07/30 10:00:10;;;;;;;6.68;2.95;;;;;;;21.93;55.15;100701.25;5113340;28;20479;-36
2021/07/30 10:02:37;;;;;;;4.43;1.90;;;;;;;22.02;55.46;100707.66;5113526;28;20054;-36
2021/07/30 10:05:07;;;;;;;4.32;2.45;;;;;;;22.13;55.25;100711.81;5113562;28;20028;-36
2021/07/30 10:07:34;;;;;;;4.35;2.03;;;;;;;22.12;53.58;100712.16;5114326;28;20112;-36
2021/07/30 10:10:10;;;;;;;6.75;2.60;;;;;;;22.17;54.07;100709.28;5113818;28;20027;-36
2021/07/30 10:12:38;;;;;;;11.85;2.35;;;;;;;22.38;55.88;100704.88;5114082;28;20027;-36
2021/07/30 10:15:06;;;;;;;4.07;2.25;;;;;;;22.62;54.71;100680.56;5114039;28;20096;-36
2021/07/30 10:17:34;;;;;;;11.20;2.30;;;;;;;22.74;53.05;100684.66;5114046;28;20467;-36
2021/07/30 10:20:07;;;;;;;6.72;2.33;;;;;;;23.01;53.28;100694.72;5113619;28;20055;-36
2021/07/30 10:22:49;;;;;;;4.93;2.28;;;;;;;22.97;51.75;100675.25;5113888;28;20035;-36
2021/07/30 10:25:19;;;;;;;6.10;2.20;;;;;;;22.96;52.07;100684.66;5113440;28;20355;-36
2021/07/30 10:27:45;;;;;;;6.40;1.90;;;;;;;23.03;51.51;100673.97;5113626;28;20027;-36
2021/07/30 10:30:15;;;;;;;2.60;2.00;;;;;;;23.21;51.88;100674.84;5113563;28;20024;-36
2021/07/30 10:32:43;;;;;;;7.43;2.28;;;;;;;23.31;50.93;100662.69;5113737;28;20015;-36
2021/07/30 10:35:09;;;;;;;5.25;2.47;;;;;;;23.43;51.47;100670.38;5112940;28;20020;-36
2021/07/30 10:37:42;;;;;;;5.57;2.40;;;;;;;23.50;51.27;100668.75;5113731;28;20034;-36
2021/07/30 10:40:21;;;;;;;4.03;2.40;;;;;;;23.31;51.27;100671.78;5112907;28;20016;-35
2021/07/30 10:42:59;;;;;;;6.32;2.50;;;;;;;23.49;51.96;100660.78;5113626;28;20339;-35
2021/07/30 10:45:24;;;;;;;4.93;2.47;;;;;;;23.72;51.47;100659.56;5117087;28;20054;-35
2021/07/30 10:48:11;;;;;;;4.95;2.45;;;;;;;23.64;53.71;100652.06;5117437;28;20063;-36
2021/07/30 10:50:43;;;;;;;;;;;;;;;23.68;52.49;100653.06;5117346;28;20106;-36
2021/07/30 10:53:30;;;;;;;5.85;2.00;;;;;;;23.41;52.53;100643.06;5117157;28;20224;-36
2021/07/30 10:55:55;;;;;;;4.68;2.35;;;;;;;23.21;52.05;100644.50;5117393;28;20024;-36
2021/07/30 10:58:21;;;;;;;4.45;2.65;;;;;;;23.21;53.12;100635.41;5116882;28;20406;-36
2021/07/30 11:00:56;;;;;;;5.50;2.70;;;;;;;23.15;52.98;100620.97;5117191;28;20123;-36
2021/07/30 11:03:21;;;;;;;5.22;2.40;;;;;;;23.27;51.42;100632.16;5117215;28;20123;-36
2021/07/30 11:06:09;;;;;;;4.07;2.15;;;;;;;23.44;52.12;100630.59;5117566;28;20042;-36
2021/07/30 11:09:03;;;;;;;6.75;2.20;;;;;;;23.45;52.49;100622.00;5117804;28;20015;-36
2021/07/30 11:11:44;;;;;;;6.32;2.50;;;;;;;23.46;53.38;100620.03;5116471;28;20024;-36
2021/07/30 11:14:18;;;;;;;5.43;2.95;;;;;;;23.29;51.25;100629.13;5116643;28;20039;-36
2021/07/30 11:16:46;;;;;;;6.00;2.80;;;;;;;23.10;50.91;100610.09;5116565;28;20031;-36
2021/07/30 11:19:14;;;;;;;4.70;2.78;;;;;;;23.05;50.21;100635.06;5116280;28;20471;-36
2021/07/30 11:21:39;;;;;;;4.32;2.70;;;;;;;22.93;50.92;100615.53;5116585;28;20047;-36
2021/07/30 11:24:06;;;;;;;6.18;2.65;;;;;;;22.99;50.63;100631.63;5116733;28;20055;-36
2021/07/30 11:26:32;;;;;;;7.40;2.50;;;;;;;22.99;51.35;100636.34;5116683;28;20459;-36
2021/07/30 11:29:05;;;;;;;3.47;2.47;;;;;;;22.84;51.07;100612.75;5116245;27;20023;-37